createdAt,value
2022-10-05T00:02:02.874Z,55.20
2022-10-05T00:04:29.498Z,55.80
2022-10-05T00:06:57.392Z,55.20
2022-10-05T00:09:24.009Z,55.20
2022-10-05T00:11:50.604Z,55.20
2022-10-05T00:14:19.379Z,55.20
2022-10-05T00:16:46.298Z,55.30
2022-10-05T00:19:23.680Z,55.20
2022-10-05T00:21:50.231Z,55.20
2022-10-05T00:24:19.341Z,55.20
2022-10-05T00:26:46.192Z,55.20
2022-10-05T00:29:22.217Z,55.30
2022-10-05T00:31:49.056Z,55.20
2022-10-05T00:34:16.261Z,55.20
2022-10-05T00:36:42.935Z,55.20
2022-10-05T00:39:09.764Z,55.20
2022-10-05T00:41:48.532Z,55.30
2022-10-05T00:44:39.588Z,55.40
2022-10-05T00:47:36.457Z,55.40
2022-10-05T00:50:28.431Z,55.40
2022-10-05T00:53:11.890Z,55.40
2022-10-05T00:55:42.740Z,55.40
2022-10-05T00:58:48.540Z,55.40
2022-10-05T01:01:26.991Z,55.40
2022-10-05T01:04:02.634Z,55.30
2022-10-05T01:07:07.078Z,55.30
2022-10-05T01:09:36.963Z,55.20
2022-10-05T01:12:28.433Z,55.30
2022-10-05T01:15:32.606Z,55.20
2022-10-05T01:18:22.005Z,55.20
2022-10-05T01:21:06.632Z,55.20
2022-10-05T01:23:49.116Z,55.10
2022-10-05T01:26:24.559Z,55.10
2022-10-05T01:28:57.598Z,55.70
2022-10-05T01:31:28.650Z,55.00
2022-10-05T01:34:17.151Z,55.00
2022-10-05T01:36:56.169Z,55.00
2022-10-05T01:39:45.914Z,55.00
2022-10-05T01:42:28.870Z,55.00
2022-10-05T01:45:16.677Z,55.00
2022-10-05T01:47:45.521Z,55.00
2022-10-05T01:50:29.313Z,55.00
2022-10-05T01:53:17.481Z,55.00
2022-10-05T01:55:49.306Z,55.10
2022-10-05T01:58:31.955Z,55.20
2022-10-05T02:01:12.691Z,55.10
2022-10-05T02:03:56.898Z,55.10
2022-10-05T02:06:24.768Z,55.10
2022-10-05T02:08:53.528Z,55.10
2022-10-05T02:11:20.084Z,55.10
2022-10-05T02:13:53.119Z,55.10
2022-10-05T02:16:30.331Z,55.10
2022-10-05T02:19:16.358Z,55.00
2022-10-05T02:21:44.690Z,55.00
2022-10-05T02:24:13.143Z,55.00
2022-10-05T02:26:40.004Z,55.60
2022-10-05T02:29:09.471Z,55.00
2022-10-05T02:31:57.373Z,54.90
2022-10-05T02:34:28.789Z,54.90
2022-10-05T02:37:11.720Z,54.90
2022-10-05T02:39:48.207Z,54.90
2022-10-05T02:42:54.094Z,54.90
2022-10-05T02:45:40.160Z,54.90
2022-10-05T02:48:21.365Z,55.00
2022-10-05T02:51:02.869Z,55.00
2022-10-05T02:53:46.780Z,54.90
2022-10-05T02:56:28.239Z,55.00
2022-10-05T02:59:02.066Z,55.10
2022-10-05T03:01:51.666Z,55.10
2022-10-05T03:04:55.781Z,55.10
2022-10-05T03:07:39.964Z,55.10
2022-10-05T03:10:15.025Z,55.10
2022-10-05T03:13:10.672Z,55.10
2022-10-05T03:16:02.892Z,55.20
2022-10-05T03:18:44.498Z,55.20
2022-10-05T03:21:39.691Z,55.20
2022-10-05T03:24:24.598Z,55.20
2022-10-05T03:27:00.767Z,55.20
2022-10-05T03:29:37.195Z,55.10
2022-10-05T03:32:26.515Z,55.10
2022-10-05T03:35:13.581Z,55.10
2022-10-05T03:37:49.683Z,55.00
2022-10-05T03:40:47.206Z,55.00
2022-10-05T03:43:43.358Z,55.00
2022-10-05T03:46:14.261Z,55.00
2022-10-05T03:48:50.922Z,55.00
2022-10-05T03:51:31.214Z,55.00
2022-10-05T03:54:05.456Z,55.00
2022-10-05T03:56:38.493Z,55.00
2022-10-05T03:59:21.056Z,55.00
2022-10-05T04:02:06.018Z,55.10
2022-10-05T04:04:42.702Z,55.20
2022-10-05T04:07:11.759Z,55.10
2022-10-05T04:09:45.522Z,55.20
2022-10-05T04:12:25.329Z,55.10
2022-10-05T04:14:57.401Z,55.30
2022-10-05T04:17:39.129Z,55.40
2022-10-05T04:20:46.967Z,55.40
2022-10-05T04:23:22.673Z,55.20
2022-10-05T04:25:51.845Z,55.20
2022-10-05T04:28:45.283Z,55.20
2022-10-05T04:31:16.061Z,56.00
2022-10-05T04:33:44.049Z,56.10
2022-10-05T04:36:26.058Z,55.70
2022-10-05T04:39:11.579Z,56.10
2022-10-05T04:41:50.665Z,56.10
2022-10-05T04:44:28.782Z,55.80
2022-10-05T04:47:03.280Z,55.50
2022-10-05T04:49:51.895Z,55.40
2022-10-05T04:52:47.107Z,55.90
2022-10-05T04:55:25.257Z,55.50
2022-10-05T04:58:00.658Z,55.40
2022-10-05T05:00:33.178Z,54.70
2022-10-05T05:03:11.353Z,54.70
2022-10-05T05:06:17.432Z,54.90
2022-10-05T05:09:18.210Z,55.00
2022-10-05T05:12:03.878Z,55.00
2022-10-05T05:15:18.686Z,55.70
2022-10-05T05:18:00.026Z,55.40
2022-10-05T05:20:42.198Z,55.30
2022-10-05T05:23:23.793Z,55.00
2022-10-05T05:25:55.190Z,54.90
2022-10-05T05:28:30.014Z,54.80
2022-10-05T05:31:10.916Z,55.30
2022-10-05T05:33:57.978Z,55.00
2022-10-05T05:36:43.227Z,54.80
2022-10-05T05:39:29.543Z,55.00
2022-10-05T05:42:17.578Z,55.00
2022-10-05T05:44:46.951Z,55.00
2022-10-05T05:47:19.726Z,55.00
2022-10-05T05:50:07.360Z,55.00
2022-10-05T05:52:45.171Z,55.00
2022-10-05T05:55:30.155Z,55.00
2022-10-05T05:58:00.527Z,55.70
2022-10-05T06:00:48.560Z,55.00
2022-10-05T06:03:32.559Z,55.10
2022-10-05T06:06:09.867Z,55.10
2022-10-05T06:09:04.077Z,55.00
2022-10-05T06:11:48.803Z,55.00
2022-10-05T06:14:18.590Z,55.00
2022-10-05T06:16:51.019Z,55.10
2022-10-05T06:19:19.253Z,55.10
2022-10-05T06:21:51.317Z,55.10
2022-10-05T06:24:23.010Z,55.20
2022-10-05T06:27:27.190Z,55.20
2022-10-05T06:30:04.613Z,55.10
2022-10-05T06:32:46.254Z,55.10
2022-10-05T06:35:46.271Z,55.10
2022-10-05T06:38:40.052Z,55.10
2022-10-05T06:41:19.606Z,55.00
2022-10-05T06:44:00.613Z,54.90
2022-10-05T06:47:00.599Z,55.00
2022-10-05T06:49:51.441Z,55.00
2022-10-05T06:52:35.491Z,54.90
2022-10-05T06:55:08.581Z,55.00
2022-10-05T06:58:00.088Z,55.00
2022-10-05T07:00:38.627Z,55.00
2022-10-05T07:03:24.197Z,54.90
2022-10-05T07:06:16.545Z,54.90
2022-10-05T07:09:04.093Z,55.00
2022-10-05T07:11:58.441Z,55.00
2022-10-05T07:14:36.097Z,55.00
2022-10-05T07:17:24.706Z,55.10
2022-10-05T07:20:15.647Z,55.20
2022-10-05T07:23:01.959Z,55.20
2022-10-05T07:25:33.043Z,55.30
2022-10-05T07:28:07.382Z,55.30
2022-10-05T07:30:56.311Z,55.40
2022-10-05T07:33:32.104Z,55.40
2022-10-05T07:36:38.442Z,55.50
2022-10-05T07:39:06.168Z,55.40
2022-10-05T07:41:40.262Z,55.50
2022-10-05T07:44:29.503Z,55.50
2022-10-05T07:47:19.471Z,55.50
2022-10-05T07:49:51.645Z,55.40
2022-10-05T07:52:41.901Z,55.40
2022-10-05T07:55:22.556Z,55.40
2022-10-05T07:58:46.195Z,55.30
2022-10-05T08:01:26.561Z,55.20
2022-10-05T08:04:04.407Z,55.20
2022-10-05T08:06:50.821Z,55.20
2022-10-05T08:09:37.445Z,55.20
2022-10-05T08:12:20.274Z,55.10
2022-10-05T08:15:03.180Z,55.10
2022-10-05T08:17:44.094Z,55.10
2022-10-05T08:20:23.767Z,55.10
2022-10-05T08:22:54.729Z,55.30
2022-10-05T08:25:25.239Z,55.40
2022-10-05T08:28:20.920Z,55.40
2022-10-05T08:31:13.649Z,55.30
2022-10-05T08:34:11.166Z,55.30
2022-10-05T08:36:51.535Z,55.20
2022-10-05T08:39:20.746Z,55.30
2022-10-05T08:41:57.080Z,55.30
2022-10-05T08:44:55.069Z,55.40
2022-10-05T08:47:28.004Z,55.20
2022-10-05T08:50:15.869Z,55.20
2022-10-05T08:52:54.689Z,55.10
2022-10-05T08:55:58.771Z,55.20
2022-10-05T08:58:25.289Z,55.20
2022-10-05T09:00:56.102Z,55.10
2022-10-05T09:04:06.493Z,55.10
2022-10-05T09:07:03.148Z,55.00
2022-10-05T09:10:12.869Z,55.00
2022-10-05T09:13:14.896Z,55.00
2022-10-05T09:16:03.259Z,55.10
2022-10-05T09:18:41.850Z,55.00
2022-10-05T09:21:23.371Z,55.00
2022-10-05T09:23:51.547Z,55.00
2022-10-05T09:26:55.476Z,55.00
2022-10-05T09:29:37.656Z,55.00
2022-10-05T09:32:12.954Z,55.10
2022-10-05T09:35:13.521Z,55.10
2022-10-05T09:38:08.404Z,55.10
2022-10-05T09:40:59.895Z,55.00
2022-10-05T09:43:37.265Z,55.10
2022-10-05T09:46:28.923Z,55.10
2022-10-05T09:49:13.654Z,55.00
2022-10-05T09:51:48.246Z,55.10
2022-10-05T09:54:45.130Z,55.10
2022-10-05T09:57:30.495Z,55.10
2022-10-05T10:00:16.120Z,55.10
2022-10-05T10:02:52.306Z,55.10
2022-10-05T10:05:34.219Z,55.10
2022-10-05T10:08:04.703Z,55.70
2022-10-05T10:10:43.276Z,55.10
2022-10-05T10:13:41.134Z,55.00
2022-10-05T10:16:23.438Z,55.10
2022-10-05T10:18:52.832Z,55.00
2022-10-05T10:21:22.091Z,55.00
2022-10-05T10:24:04.875Z,55.00
2022-10-05T10:27:01.136Z,55.00
2022-10-05T10:29:42.567Z,55.00
2022-10-05T10:32:37.056Z,55.20
2022-10-05T10:35:07.794Z,55.20
2022-10-05T10:37:52.520Z,55.30
2022-10-05T10:40:38.542Z,55.30
2022-10-05T10:43:10.866Z,55.30
2022-10-05T10:46:00.005Z,55.40
2022-10-05T10:48:29.674Z,55.30
2022-10-05T10:51:35.039Z,55.30
2022-10-05T10:54:13.585Z,55.30
2022-10-05T10:57:18.486Z,55.30
2022-10-05T11:00:15.832Z,55.30
2022-10-05T11:03:17.890Z,55.30
2022-10-05T11:06:16.991Z,55.20
2022-10-05T11:09:09.594Z,55.20
2022-10-05T11:11:49.255Z,55.10
2022-10-05T11:14:34.398Z,55.00
2022-10-05T11:17:12.658Z,55.00
2022-10-05T11:20:05.240Z,55.00
2022-10-05T11:23:12.336Z,55.00
2022-10-05T11:26:17.396Z,54.90
2022-10-05T11:29:00.638Z,54.90
2022-10-05T11:32:04.618Z,54.90
2022-10-05T11:34:58.511Z,54.90
2022-10-05T11:38:07.461Z,55.60
2022-10-05T11:40:51.654Z,55.10
2022-10-05T11:43:37.255Z,55.00
2022-10-05T11:47:02.692Z,55.10
2022-10-05T11:49:44.056Z,55.20
2022-10-05T11:52:23.375Z,55.20
2022-10-05T11:55:10.763Z,55.60
2022-10-05T11:57:57.209Z,55.60
2022-10-05T12:00:45.201Z,55.90
2022-10-05T12:03:17.732Z,55.90
2022-10-05T12:05:53.279Z,55.60
2022-10-05T12:08:36.635Z,56.30
2022-10-05T12:11:36.304Z,55.60
2022-10-05T12:14:24.302Z,55.60
2022-10-05T12:17:11.890Z,55.50
2022-10-05T12:19:48.144Z,55.60
2022-10-05T12:22:22.992Z,56.60
2022-10-05T12:25:19.043Z,56.10
2022-10-05T12:27:46.487Z,55.90
2022-10-05T12:30:27.347Z,56.20
2022-10-05T12:33:06.533Z,55.90
2022-10-05T12:35:48.065Z,55.90
2022-10-05T12:38:33.230Z,55.70
2022-10-05T12:41:10.640Z,56.30
2022-10-05T12:44:16.794Z,55.90
2022-10-05T12:46:53.708Z,55.90
2022-10-05T12:49:38.945Z,55.90
2022-10-05T12:52:06.107Z,55.80
2022-10-05T12:54:58.785Z,55.80
2022-10-05T12:57:44.042Z,55.80
2022-10-05T13:00:21.766Z,55.70
2022-10-05T13:03:01.762Z,56.30
2022-10-05T13:05:44.692Z,55.60
2022-10-05T13:08:20.384Z,55.70
2022-10-05T13:11:02.147Z,55.60
2022-10-05T13:13:47.845Z,55.60
2022-10-05T13:16:33.254Z,55.60
2022-10-05T13:19:16.876Z,55.60
2022-10-05T13:21:47.539Z,55.60
2022-10-05T13:24:23.294Z,55.60
2022-10-05T13:26:54.604Z,55.60
2022-10-05T13:29:22.074Z,55.60
2022-10-05T13:31:53.084Z,55.60
2022-10-05T13:34:28.730Z,55.50
2022-10-05T13:36:57.982Z,55.60
2022-10-05T13:39:46.745Z,55.50
2022-10-05T13:42:25.951Z,55.60
2022-10-05T13:44:58.979Z,55.50
2022-10-05T13:47:35.376Z,55.60
2022-10-05T13:50:16.556Z,55.60
2022-10-05T13:53:11.429Z,55.60
2022-10-05T13:55:58.700Z,55.70
2022-10-05T13:59:06.612Z,55.70
2022-10-05T14:01:45.870Z,55.70
2022-10-05T14:04:20.690Z,55.60
2022-10-05T14:06:47.845Z,55.60
2022-10-05T14:09:20.438Z,55.60
2022-10-05T14:11:48.961Z,55.60
2022-10-05T14:14:26.460Z,55.60
2022-10-05T14:16:54.939Z,55.40
2022-10-05T14:19:27.012Z,55.20
2022-10-05T14:22:10.742Z,55.20
2022-10-05T14:24:44.152Z,55.20
2022-10-05T14:27:20.840Z,55.20
2022-10-05T14:29:54.436Z,55.20
2022-10-05T14:32:23.223Z,55.10
2022-10-05T14:34:58.807Z,55.20
2022-10-05T14:37:30.939Z,55.30
2022-10-05T14:40:03.357Z,55.30
2022-10-05T14:42:30.778Z,55.20
2022-10-05T14:45:11.585Z,55.90
2022-10-05T14:47:59.991Z,55.20
2022-10-05T14:50:29.493Z,55.30
2022-10-05T14:53:11.207Z,55.30
2022-10-05T14:55:56.488Z,55.50
2022-10-05T14:58:36.140Z,55.60
2022-10-05T15:01:17.905Z,55.60
2022-10-05T15:03:50.450Z,55.60
2022-10-05T15:06:28.054Z,55.50
2022-10-05T15:09:19.104Z,55.90
2022-10-05T15:11:53.533Z,55.80
2022-10-05T15:14:38.361Z,55.80
2022-10-05T15:17:17.006Z,55.90
2022-10-05T15:20:01.953Z,55.80
2022-10-05T15:22:44.364Z,55.70
2022-10-05T15:25:23.014Z,55.80
2022-10-05T15:28:10.201Z,56.10
2022-10-05T15:30:41.010Z,56.10
2022-10-05T15:33:20.938Z,56.10
2022-10-05T15:35:54.395Z,55.60
2022-10-05T15:38:23.769Z,55.70
2022-10-05T15:41:14.706Z,55.60
2022-10-05T15:43:53.094Z,55.20
2022-10-05T15:46:34.064Z,54.80
2022-10-05T15:49:08.209Z,54.70
2022-10-05T15:51:56.348Z,54.90
2022-10-05T15:54:41.595Z,55.00
2022-10-05T15:57:10.876Z,55.30
2022-10-05T15:59:52.511Z,55.60
2022-10-05T16:02:22.770Z,55.90
2022-10-05T16:05:07.578Z,55.90
2022-10-05T16:08:04.533Z,56.00
2022-10-05T16:10:33.466Z,56.20
2022-10-05T16:13:11.574Z,56.30
2022-10-05T16:15:42.635Z,56.20
2022-10-05T16:18:35.682Z,56.60
2022-10-05T16:21:12.074Z,56.40
2022-10-05T16:24:09.451Z,56.40
2022-10-05T16:26:57.888Z,56.40
2022-10-05T16:29:32.908Z,56.40
2022-10-05T16:32:22.084Z,56.90
2022-10-05T16:35:30.053Z,56.80
2022-10-05T16:38:08.414Z,56.60
2022-10-05T16:40:58.464Z,56.50
2022-10-05T16:43:44.749Z,56.50
2022-10-05T16:46:21.911Z,56.40
2022-10-05T16:49:07.668Z,56.30
2022-10-05T16:51:57.803Z,56.40
2022-10-05T16:54:32.224Z,56.60
2022-10-05T16:57:22.556Z,57.30
2022-10-05T17:00:23.869Z,56.50
2022-10-05T17:03:17.725Z,56.40
2022-10-05T17:05:55.629Z,56.60
2022-10-05T17:08:46.596Z,56.70
2022-10-05T17:11:19.302Z,56.30
2022-10-05T17:14:21.166Z,57.20
2022-10-05T17:16:54.377Z,56.50
2022-10-05T17:19:58.629Z,56.40
2022-10-05T17:22:40.430Z,56.40
2022-10-05T17:25:22.250Z,56.80
2022-10-05T17:27:56.510Z,56.50
2022-10-05T17:30:37.811Z,56.50
2022-10-05T17:33:22.853Z,56.50
2022-10-05T17:35:51.764Z,56.40
2022-10-05T17:38:22.579Z,56.30
2022-10-05T17:41:20.159Z,56.30
2022-10-05T17:44:19.356Z,56.30
2022-10-05T17:46:50.472Z,56.20
2022-10-05T17:49:26.570Z,56.20
2022-10-05T17:52:11.636Z,56.20
2022-10-05T17:55:02.617Z,56.00
2022-10-05T17:57:29.173Z,56.20
2022-10-05T17:59:56.793Z,56.10
2022-10-05T18:02:36.329Z,56.10
2022-10-05T18:05:12.320Z,56.10
2022-10-05T18:07:39.657Z,56.10
2022-10-05T18:10:12.363Z,56.10
2022-10-05T18:13:09.301Z,56.10
2022-10-05T18:15:44.814Z,56.00
2022-10-05T18:18:34.047Z,56.00
2022-10-05T18:21:18.202Z,56.00
2022-10-05T18:23:51.922Z,55.90
2022-10-05T18:26:54.636Z,56.00
2022-10-05T18:30:02.306Z,56.00
2022-10-05T18:32:42.246Z,56.00
2022-10-05T18:35:13.355Z,55.90
2022-10-05T18:38:12.429Z,56.00
2022-10-05T18:41:03.605Z,55.90
2022-10-05T18:43:52.475Z,55.90
2022-10-05T18:46:37.920Z,55.90
2022-10-05T18:49:29.555Z,55.80
2022-10-05T18:52:03.234Z,55.80
2022-10-05T18:54:57.430Z,55.90
2022-10-05T18:57:42.479Z,55.80
2022-10-05T19:00:22.670Z,55.80
2022-10-05T19:02:57.159Z,55.70
2022-10-05T19:05:47.498Z,55.90
2022-10-05T19:08:36.106Z,55.90
2022-10-05T19:11:15.293Z,56.00
2022-10-05T19:14:10.958Z,56.00
2022-10-05T19:16:46.194Z,55.90
2022-10-05T19:19:29.497Z,56.50
2022-10-05T19:22:08.188Z,56.70
2022-10-05T19:24:41.563Z,56.60
2022-10-05T19:27:27.155Z,56.50
2022-10-05T19:30:07.469Z,56.30
2022-10-05T19:32:58.661Z,56.10
2022-10-05T19:35:35.515Z,56.10
2022-10-05T19:38:15.673Z,55.90
2022-10-05T19:40:51.986Z,55.90
2022-10-05T19:43:27.381Z,55.70
2022-10-05T19:46:20.221Z,55.70
2022-10-05T19:48:53.538Z,55.60
2022-10-05T19:51:32.994Z,55.60
2022-10-05T19:54:13.614Z,55.50
2022-10-05T19:56:50.914Z,55.60
2022-10-05T19:59:18.782Z,55.50
2022-10-05T20:01:49.499Z,55.50
2022-10-05T20:04:35.190Z,55.40
2022-10-05T20:07:02.293Z,55.40
2022-10-05T20:09:29.165Z,55.40
2022-10-05T20:11:56.483Z,55.40
2022-10-05T20:14:30.542Z,55.30
2022-10-05T20:17:46.683Z,55.30
2022-10-05T20:20:48.558Z,55.30
2022-10-05T20:23:20.525Z,55.30
2022-10-05T20:26:07.074Z,55.40
2022-10-05T20:28:33.731Z,55.20
2022-10-05T20:31:00.392Z,55.30
2022-10-05T20:33:27.316Z,55.20
2022-10-05T20:35:55.592Z,55.30
2022-10-05T20:38:22.519Z,55.30
2022-10-05T20:40:49.111Z,55.20
2022-10-05T20:43:15.653Z,55.30
2022-10-05T20:45:43.199Z,55.20
2022-10-05T20:48:11.021Z,55.20
2022-10-05T20:50:37.918Z,55.20
2022-10-05T20:53:09.656Z,55.20
2022-10-05T20:55:38.230Z,55.20
2022-10-05T20:58:04.805Z,55.20
2022-10-05T21:00:51.405Z,55.20
2022-10-05T21:03:19.215Z,55.30
2022-10-05T21:05:46.825Z,55.40
2022-10-05T21:08:13.812Z,55.40
2022-10-05T21:10:40.385Z,55.30
2022-10-05T21:13:06.938Z,55.30
2022-10-05T21:15:33.519Z,55.40
2022-10-05T21:18:00.095Z,55.40
2022-10-05T21:20:26.674Z,55.30
2022-10-05T21:22:53.223Z,55.40
2022-10-05T21:25:19.769Z,55.40
2022-10-05T21:27:48.581Z,55.40
2022-10-05T21:30:15.384Z,56.10
2022-10-05T21:32:44.396Z,55.40
2022-10-05T21:35:11.389Z,55.50
2022-10-05T21:37:37.957Z,55.40
2022-10-05T21:40:04.774Z,55.40
2022-10-05T21:42:31.355Z,55.40
2022-10-05T21:44:57.942Z,55.40
2022-10-05T21:47:25.056Z,55.40
2022-10-05T21:49:51.619Z,55.40
2022-10-05T21:52:18.165Z,55.50
2022-10-05T21:54:44.748Z,55.60
2022-10-05T21:57:11.334Z,55.60
2022-10-05T21:59:37.892Z,55.60
2022-10-05T22:02:04.445Z,55.60
2022-10-05T22:04:31.031Z,55.60
2022-10-05T22:06:57.613Z,55.50
2022-10-05T22:09:24.165Z,55.40
2022-10-05T22:11:51.239Z,55.50
2022-10-05T22:14:18.417Z,55.40
2022-10-05T22:16:45.081Z,55.40
2022-10-05T22:19:14.473Z,55.40
2022-10-05T22:21:41.717Z,55.40
2022-10-05T22:24:09.110Z,55.30
2022-10-05T22:26:35.857Z,55.40
2022-10-05T22:29:02.467Z,55.40
2022-10-05T22:31:29.133Z,55.50
2022-10-05T22:33:55.794Z,55.50
2022-10-05T22:36:22.350Z,56.20
2022-10-05T22:38:48.947Z,55.50
2022-10-05T22:41:18.029Z,55.50
2022-10-05T22:43:44.606Z,55.50
2022-10-05T22:46:11.635Z,55.50
2022-10-05T22:48:38.345Z,55.50
2022-10-05T22:51:04.988Z,55.50
2022-10-05T22:53:31.537Z,55.50
2022-10-05T22:56:02.893Z,55.50
2022-10-05T22:58:29.888Z,55.40
2022-10-05T23:01:00.827Z,55.40
2022-10-05T23:03:27.422Z,55.40
2022-10-05T23:06:03.438Z,55.40
2022-10-05T23:08:33.370Z,55.30
2022-10-05T23:11:04.337Z,55.40
2022-10-05T23:13:30.912Z,55.40
2022-10-05T23:15:57.522Z,55.40
2022-10-05T23:18:24.102Z,55.40
2022-10-05T23:20:54.740Z,55.40
2022-10-05T23:23:22.183Z,55.40
2022-10-05T23:25:49.321Z,55.40
2022-10-05T23:28:15.897Z,55.20
2022-10-05T23:30:42.647Z,55.40
2022-10-05T23:33:09.237Z,55.30
2022-10-05T23:35:35.794Z,55.30
2022-10-05T23:38:02.338Z,55.40
2022-10-05T23:40:28.901Z,55.40
2022-10-05T23:42:55.863Z,55.40
2022-10-05T23:45:22.415Z,55.50
2022-10-05T23:47:48.974Z,55.50
2022-10-05T23:50:15.608Z,55.50
2022-10-05T23:52:42.147Z,55.50
2022-10-05T23:55:09.026Z,55.40
2022-10-05T23:57:35.580Z,55.50
